Time;durP1;ratioP1;P1;durP2;ratioP2;P2;SDS_P1;SDS_P2;PMS_P1;PMS_P2;Temp;Humidity;BMP_temperature;BMP_pressure;BME280_temperature;BME280_humidity;BME280_pressure;Samples;Min_cycle;Max_cycle;Signal;HPM_P1;HPM_P2
2022/08/07 00:01:01;;;;;;;5.10;2.10;;;;;;;20.03;59.22;99735.50;237371;1195;140358;-61
2022/08/07 00:06:25;;;;;;;5.00;2.20;;;;;;;20.03;59.21;99734.95;237799;1194;140292;-60
2022/08/07 00:11:35;;;;;;;4.50;2.30;;;;;;;20.01;59.23;99732.83;237671;1194;140422;-61
2022/08/07 00:17:00;;;;;;;4.10;2.20;;;;;;;19.99;59.46;99728.64;237317;1195;139790;-58
2022/08/07 00:22:04;;;;;;;5.90;2.40;;;;;;;19.97;59.55;99727.95;237449;1195;139259;-62
2022/08/07 00:27:07;;;;;;;4.70;2.20;;;;;;;19.94;59.61;99733.04;237429;1194;139020;-63
2022/08/07 00:32:12;;;;;;;3.50;1.80;;;;;;;19.92;59.84;99734.88;237701;1194;139358;-60
2022/08/07 00:37:16;;;;;;;4.20;2.00;;;;;;;19.91;59.75;99737.13;237600;1194;140209;-60
2022/08/07 00:42:24;;;;;;;3.10;2.00;;;;;;;19.93;59.87;99731.32;237074;1195;140296;-59
2022/08/07 00:47:31;;;;;;;6.50;2.50;;;;;;;19.94;59.91;99739.02;237548;1194;139358;-60
2022/08/07 00:52:54;;;;;;;4.80;2.20;;;;;;;19.92;59.82;99750.32;237707;1194;139659;-61
2022/08/07 00:57:57;;;;;;;3.80;2.20;;;;;;;19.88;59.78;99756.45;237619;1194;139098;-60
2022/08/07 01:03:00;;;;;;;3.30;2.30;;;;;;;19.82;59.75;99755.88;237133;1195;138938;-60
2022/08/07 01:08:04;;;;;;;5.40;2.90;;;;;;;19.76;59.77;99749.30;237359;1195;140268;-61
2022/08/07 01:13:11;;;;;;;4.90;2.30;;;;;;;19.70;59.98;99745.10;237534;1195;138887;-62
2022/08/07 01:18:19;;;;;;;3.20;2.10;;;;;;;19.65;59.88;99744.34;237390;1195;139444;-62
2022/08/07 01:23:28;;;;;;;7.20;2.20;;;;;;;19.66;60.11;99744.63;237315;1195;140597;-60
2022/08/07 01:28:46;;;;;;;5.40;2.10;;;;;;;19.68;60.13;99742.02;237667;1195;139430;-60
2022/08/07 01:33:55;;;;;;;4.50;2.30;;;;;;;19.70;60.13;99748.21;237708;1194;139261;-59
2022/08/07 01:39:03;;;;;;;3.40;2.10;;;;;;;19.71;60.21;99743.93;237425;1195;139903;-60
2022/08/07 01:44:14;;;;;;;4.10;1.90;;;;;;;19.72;60.16;99737.02;237298;1195;139816;-60
2022/08/07 01:49:19;;;;;;;;;;;;;;;19.71;60.16;99734.72;237214;1196;139356;-59
2022/08/07 01:54:27;;;;;;;3.50;2.10;;;;;;;19.69;60.27;99731.90;237398;1195;125591;-61
2022/08/07 01:59:43;;;;;;;3.90;2.00;;;;;;;19.67;60.23;99735.51;237441;1195;139989;-62
2022/08/07 02:04:55;;;;;;;3.90;2.50;;;;;;;19.63;60.22;99737.42;237494;1195;140493;-61
2022/08/07 02:10:05;;;;;;;11.10;2.70;;;;;;;19.65;60.31;99737.14;237409;1195;140784;-61
2022/08/07 02:15:13;;;;;;;3.80;2.50;;;;;;;19.68;60.42;99733.97;237318;1195;140117;-61
2022/08/07 02:20:21;;;;;;;6.30;2.80;;;;;;;19.69;60.48;99732.98;237289;1195;139926;-60
2022/08/07 02:25:27;;;;;;;14.80;10.30;;;;;;;19.68;60.51;99731.08;237342;1195;138991;-60
2022/08/07 02:30:51;;;;;;;17.80;15.70;;;;;;;19.66;60.60;99736.86;237441;1194;139381;-61
2022/08/07 02:35:56;;;;;;;17.90;15.90;;;;;;;19.63;60.56;99738.91;237214;1195;139681;-62
2022/08/07 02:41:20;;;;;;;17.10;14.40;;;;;;;19.60;60.71;99737.13;237485;1195;139827;-62
2022/08/07 02:46:26;;;;;;;16.40;12.10;;;;;;;19.60;60.72;99741.27;237500;1195;139404;-58
2022/08/07 02:51:33;;;;;;;13.90;10.40;;;;;;;19.60;60.67;99742.35;237236;1195;140377;-62
2022/08/07 02:56:54;;;;;;;15.10;10.20;;;;;;;19.61;60.87;99744.94;237267;1195;140041;-62
2022/08/07 03:01:59;;;;;;;12.10;9.60;;;;;;;19.62;60.87;99743.95;237658;1194;139871;-62
2022/08/07 03:07:05;;;;;;;11.30;8.80;;;;;;;19.66;61.05;99746.40;237578;1195;140420;-63
2022/08/07 03:12:14;;;;;;;9.00;7.60;;;;;;;19.66;60.97;99741.87;237301;1195;141936;-61
2022/08/07 03:17:36;;;;;;;9.70;7.10;;;;;;;19.61;60.90;99743.66;237394;1195;139464;-60
2022/08/07 03:22:57;;;;;;;6.40;5.80;;;;;;;19.61;61.05;99746.39;237296;1195;139242;-61
2022/08/07 03:28:03;;;;;;;6.00;3.80;;;;;;;19.59;60.90;99748.02;237499;1195;139593;-61
2022/08/07 03:33:26;;;;;;;;;;;;;;;19.57;60.80;99746.58;237522;1195;140609;-61
2022/08/07 03:38:43;;;;;;;4.30;3.10;;;;;;;19.55;60.93;99747.10;237427;1195;125887;-60
2022/08/07 03:43:49;;;;;;;5.90;2.50;;;;;;;19.55;60.92;99746.95;237335;1195;139125;-59
2022/08/07 03:49:01;;;;;;;5.70;2.40;;;;;;;19.58;60.88;99750.83;237285;1195;139575;-60
2022/08/07 03:54:10;;;;;;;5.40;2.40;;;;;;;19.59;60.79;99753.20;237318;1195;139203;-61
2022/08/07 03:59:33;;;;;;;4.70;2.60;;;;;;;19.59;60.86;99754.34;237376;1195;139300;-60
2022/08/07 04:04:36;;;;;;;7.70;2.60;;;;;;;19.59;60.80;99761.73;237462;1194;139120;-59
2022/08/07 04:09:41;;;;;;;4.10;2.20;;;;;;;19.54;60.78;99767.36;237418;1195;139779;-61
2022/08/07 04:14:55;;;;;;;3.70;2.40;;;;;;;19.61;60.95;99768.00;237386;1195;140021;-60
2022/08/07 04:19:59;;;;;;;4.30;2.40;;;;;;;19.70;61.06;99768.02;237535;1195;139148;-62
2022/08/07 04:25:07;;;;;;;83.90;70.10;;;;;;;19.75;60.96;99767.04;237100;1194;139221;-61
2022/08/07 04:30:16;;;;;;;20.20;17.30;;;;;;;20.07;62.70;99768.83;237299;1195;139480;-61
2022/08/07 04:35:48;;;;;;;12.00;7.30;;;;;;;20.63;62.57;99766.83;237630;1195;140424;-61
2022/08/07 04:40:58;;;;;;;32.00;26.00;;;;;;;21.00;61.97;99769.15;237248;1194;139465;-60
2022/08/07 04:46:20;;;;;;;9.10;6.70;;;;;;;21.26;61.43;99770.16;237389;1195;140402;-61
2022/08/07 04:51:50;;;;;;;5.90;4.50;;;;;;;21.43;60.98;99774.11;237044;1195;138735;-60
2022/08/07 04:57:13;;;;;;;3.70;2.80;;;;;;;21.59;60.51;99769.30;237303;1194;139834;-60
2022/08/07 05:02:55;;;;;;;5.10;2.20;;;;;;;21.68;59.96;99780.02;237576;1194;139298;-61
2022/08/07 05:08:05;;;;;;;5.90;2.40;;;;;;;21.74;59.68;99789.92;237429;1194;141220;-61
2022/08/07 05:13:19;;;;;;;3.80;2.30;;;;;;;21.79;59.33;99791.86;237308;1195;139357;-60
2022/08/07 05:19:14;;;;;;;20.70;17.50;;;;;;;21.78;59.00;99799.81;237217;1195;138830;-61
2022/08/07 05:24:20;;;;;;;10.60;6.30;;;;;;;21.72;58.75;99795.73;237045;1195;139651;-62
2022/08/07 05:29:37;;;;;;;5.80;3.70;;;;;;;21.68;58.64;99801.02;237286;1195;139080;-60
2022/08/07 05:34:55;;;;;;;3.60;2.70;;;;;;;21.72;58.72;99798.58;237472;1194;139938;-59
2022/08/07 05:40:00;;;;;;;5.00;2.50;;;;;;;21.78;58.66;99798.21;237349;1195;139045;-60
2022/08/07 05:45:23;;;;;;;11.70;9.20;;;;;;;21.72;57.99;99810.54;237227;1194;138834;-60
2022/08/07 05:50:47;;;;;;;;;;;;;;;21.44;57.70;99816.59;237472;1194;139420;-60
2022/08/07 05:55:55;;;;;;;8.20;3.80;;;;;;;21.32;58.06;99815.63;237459;1195;126322;-59
2022/08/07 06:01:09;;;;;;;5.30;3.60;;;;;;;21.23;58.21;99815.47;237231;1195;138903;-60
2022/08/07 06:06:16;;;;;;;4.90;2.80;;;;;;;21.23;58.26;99816.56;237452;1195;139880;-61
2022/08/07 06:11:22;;;;;;;7.30;2.60;;;;;;;21.23;58.22;99817.17;237495;1193;140862;-62
2022/08/07 06:16:30;;;;;;;67.50;60.30;;;;;;;21.23;58.22;99815.37;237386;1195;139429;-62
2022/08/07 06:21:35;;;;;;;5.80;3.70;;;;;;;21.21;58.08;99819.52;237372;1195;139782;-61
2022/08/07 06:26:58;;;;;;;6.10;2.70;;;;;;;21.13;57.87;99819.33;237438;1194;139096;-60
2022/08/07 06:32:06;;;;;;;5.90;2.90;;;;;;;21.05;57.87;99822.65;237352;1195;139371;-63
2022/08/07 06:37:09;;;;;;;5.50;2.50;;;;;;;20.97;57.82;99821.22;237424;1195;138958;-62
2022/08/07 06:42:24;;;;;;;3.80;2.40;;;;;;;20.86;57.77;99826.43;237414;1194;140166;-63
2022/08/07 06:48:01;;;;;;;3.20;2.20;;;;;;;20.81;58.16;99825.77;237240;1194;139716;-61
2022/08/07 06:53:20;;;;;;;5.30;2.40;;;;;;;20.83;58.43;99824.32;237347;1195;139507;-63
2022/08/07 06:58:47;;;;;;;6.20;2.20;;;;;;;20.86;58.56;99831.44;237414;1195;138717;-62
2022/08/07 07:04:13;;;;;;;4.30;2.20;;;;;;;20.96;58.67;99836.20;237469;1195;140037;-61
2022/08/07 07:09:34;;;;;;;6.20;2.40;;;;;;;21.08;58.49;99838.80;237283;1195;139048;-60
2022/08/07 07:15:02;;;;;;;4.60;2.20;;;;;;;21.13;58.30;99831.25;236708;1194;139023;-63
2022/08/07 07:20:20;;;;;;;3.60;1.90;;;;;;;21.17;58.26;99830.54;237455;1195;138658;-61
2022/08/07 07:25:24;;;;;;;7.00;2.30;;;;;;;21.26;58.46;99820.83;237417;1195;139137;-61
2022/08/07 07:31:14;;;;;;;4.30;2.00;;;;;;;21.31;58.24;99824.31;237241;1195;139706;-59
2022/08/07 07:36:24;;;;;;;5.00;2.20;;;;;;;21.41;57.96;99829.40;237149;1195;140176;-59
2022/08/07 07:41:36;;;;;;;10.70;8.00;;;;;;;21.48;58.08;99825.11;237422;1194;139354;-60
2022/08/07 07:47:00;;;;;;;8.80;4.70;;;;;;;21.82;59.09;99827.67;237332;1195;139777;-59
2022/08/07 07:52:21;;;;;;;11.40;9.10;;;;;;;22.11;58.61;99825.73;237470;1195;140155;-59
2022/08/07 07:57:25;;;;;;;10.60;9.10;;;;;;;22.32;58.25;99828.97;237330;1195;139115;-59
2022/08/07 08:02:54;;;;;;;6.90;4.80;;;;;;;22.54;57.94;99828.73;237468;1195;143626;-59
2022/08/07 08:08:09;;;;;;;6.70;2.70;;;;;;;22.69;57.40;99829.57;237403;1195;140369;-59
2022/08/07 08:13:36;;;;;;;2.70;1.80;;;;;;;22.71;56.58;99824.83;237302;1194;138929;-58
2022/08/07 08:18:59;;;;;;;4.70;1.90;;;;;;;22.76;56.38;99828.88;237227;1195;139435;-58
2022/08/07 08:29:51;;;;;;;5.30;3.10;;;;;;;22.61;54.36;99820.39;237474;1195;139849;-59
2022/08/07 08:34:58;;;;;;;97.10;75.70;;;;;;;22.50;54.73;99822.44;237471;1194;139952;-59
2022/08/07 08:40:09;;;;;;;6.30;3.50;;;;;;;22.52;54.66;99822.82;237637;1194;139299;-60
2022/08/07 08:45:33;;;;;;;5.10;3.10;;;;;;;22.59;54.57;99819.17;237544;1194;139232;-59
2022/08/07 08:51:09;;;;;;;7.40;3.60;;;;;;;22.55;54.44;99818.70;237278;1195;139147;-58
2022/08/07 08:56:34;;;;;;;6.90;1.70;;;;;;;22.60;54.21;99825.80;237180;1195;138834;-59
2022/08/07 09:01:45;;;;;;;6.90;2.60;;;;;;;22.63;54.19;99824.44;237242;1195;139033;-59
2022/08/07 09:07:01;;;;;;;6.80;2.80;;;;;;;22.85;54.61;99822.54;237354;1194;139508;-59
2022/08/07 09:12:11;;;;;;;4.80;1.60;;;;;;;23.04;54.05;99815.17;237340;1195;139219;-59
2022/08/07 09:17:45;;;;;;;4.60;1.80;;;;;;;23.08;53.59;99816.13;237375;1195;138908;-59
2022/08/07 09:23:32;;;;;;;14.10;8.90;;;;;;;23.13;53.51;99809.96;237372;1195;139276;-59
2022/08/07 09:29:12;;;;;;;14.50;7.40;;;;;;;23.25;53.19;99804.60;237439;1194;139797;-58
2022/08/07 09:35:06;;;;;;;20.30;15.40;;;;;;;23.41;53.27;99794.24;237583;1194;139632;-58
2022/08/07 09:40:48;;;;;;;5.20;3.10;;;;;;;23.52;52.68;99787.60;237226;1195;139873;-59
2022/08/07 09:46:18;;;;;;;6.80;2.30;;;;;;;23.48;52.56;99787.24;237397;1195;139349;-57
2022/08/07 09:52:05;;;;;;;6.90;1.80;;;;;;;23.45;52.32;99783.65;237663;1195;138812;-57
2022/08/07 09:57:35;;;;;;;27.20;18.50;;;;;;;23.50;52.31;99775.39;237579;1194;139020;-58
2022/08/07 10:03:24;;;;;;;7.00;4.40;;;;;;;23.44;51.92;99764.83;237196;1195;139864;-58
2022/08/07 10:09:13;;;;;;;4.90;1.60;;;;;;;23.43;51.88;99766.54;237503;1194;139696;-58
2022/08/07 10:14:37;;;;;;;2.90;1.50;;;;;;;23.33;51.28;99760.30;237501;1194;139399;-58
2022/08/07 10:20:02;;;;;;;2.10;1.20;;;;;;;23.28;51.31;99756.87;237262;1195;139116;-59
2022/08/07 10:25:15;;;;;;;6.00;1.30;;;;;;;23.24;50.98;99754.30;237209;1195;140224;-56
2022/08/07 10:30:43;;;;;;;2.50;1.30;;;;;;;23.22;50.80;99748.54;237535;1195;139901;-59
2022/08/07 10:35:58;;;;;;;6.40;1.20;;;;;;;23.23;50.87;99745.42;237542;1194;139717;-59
2022/08/07 10:41:28;;;;;;;3.20;1.20;;;;;;;23.20;50.47;99740.85;237567;1194;139775;-59
2022/08/07 10:47:04;;;;;;;3.70;1.30;;;;;;;23.07;50.25;99738.33;237486;1194;139473;-60
2022/08/07 10:52:32;;;;;;;5.80;1.20;;;;;;;22.97;50.48;99731.21;237399;1195;139875;-60
2022/08/07 10:58:01;;;;;;;5.00;1.40;;;;;;;23.01;51.13;99730.61;237421;1194;139038;-60
2022/08/07 11:03:15;;;;;;;4.90;1.30;;;;;;;23.08;51.34;99727.98;237640;1194;139606;-59
2022/08/07 11:08:31;;;;;;;3.40;1.10;;;;;;;23.04;51.01;99724.02;237364;1194;139128;-59
2022/08/07 11:13:52;;;;;;;4.10;1.40;;;;;;;22.97;50.70;99718.80;237222;1195;139709;-59
2022/08/07 11:19:34;;;;;;;6.00;1.10;;;;;;;22.97;50.83;99711.04;237399;1195;139511;-59
2022/08/07 11:24:48;;;;;;;4.20;1.10;;;;;;;22.92;50.53;99706.37;237649;1194;138660;-60
2022/08/07 11:30:02;;;;;;;4.20;1.30;;;;;;;22.85;50.86;99708.16;237442;1195;139364;-58
2022/08/07 11:35:27;;;;;;;4.90;1.50;;;;;;;22.95;51.29;99704.15;237431;1195;139451;-59
2022/08/07 11:41:21;;;;;;;3.90;1.00;;;;;;;22.99;51.14;99701.77;237528;1195;139532;-59
2022/08/07 11:47:05;;;;;;;5.80;1.40;;;;;;;23.13;51.54;99697.23;236372;1198;139222;-59
2022/08/07 11:52:38;;;;;;;5.40;1.20;;;;;;;23.22;51.05;99690.45;237597;1195;139119;-59
2022/08/07 11:57:58;;;;;;;4.00;1.10;;;;;;;23.35;51.02;99686.36;237229;1195;139159;-59
2022/08/07 12:03:22;;;;;;;2.90;0.80;;;;;;;23.48;50.26;99682.33;237609;1195;139405;-58
2022/08/07 12:09:06;;;;;;;4.60;1.10;;;;;;;23.57;49.89;99674.45;237450;1195;140087;-59
2022/08/07 12:14:26;;;;;;;3.00;1.00;;;;;;;23.64;49.81;99668.99;237493;1195;139739;-59
2022/08/07 12:19:52;;;;;;;3.50;1.30;;;;;;;23.76;49.54;99665.16;237376;1195;138418;-59
2022/08/07 12:30:54;;;;;;;2.90;1.10;;;;;;;24.23;48.65;99658.06;236998;1194;139173;-58
2022/08/07 12:35:59;;;;;;;3.40;1.00;;;;;;;24.20;48.10;99657.47;237576;1195;139211;-59
2022/08/07 12:41:06;;;;;;;2.80;0.90;;;;;;;24.14;47.85;99656.24;237633;1194;139812;-59
2022/08/07 12:46:20;;;;;;;4.20;0.90;;;;;;;24.11;47.82;99655.69;237219;1195;139314;-59
2022/08/07 12:51:45;;;;;;;27.60;22.30;;;;;;;24.17;47.66;99651.55;237202;1195;139310;-58
2022/08/07 12:57:10;;;;;;;3.80;2.00;;;;;;;24.27;47.34;99644.94;237373;1195;140001;-60
2022/08/07 13:03:07;;;;;;;5.00;1.50;;;;;;;24.40;47.17;99643.40;237225;1195;139222;-59
2022/08/07 13:08:56;;;;;;;2.50;1.10;;;;;;;24.58;46.90;99637.64;237308;1195;139674;-58
2022/08/07 13:14:15;;;;;;;3.20;1.00;;;;;;;24.65;46.55;99638.45;237633;1195;139255;-59
2022/08/07 13:19:42;;;;;;;3.10;1.90;;;;;;;24.62;46.18;99632.59;237655;1194;140308;-58
2022/08/07 13:24:58;;;;;;;4.60;1.00;;;;;;;24.70;45.98;99627.86;237276;1195;140090;-59
2022/08/07 13:30:12;;;;;;;3.60;0.90;;;;;;;24.92;45.63;99620.55;237272;1195;139064;-59
2022/08/07 13:35:47;;;;;;;0.90;0.70;;;;;;;25.00;45.17;99617.27;237605;1194;139338;-58
2022/08/07 13:41:30;;;;;;;3.60;1.00;;;;;;;24.97;44.96;99608.11;237283;1194;139159;-59
2022/08/07 13:46:46;;;;;;;36.60;30.90;;;;;;;25.40;45.12;99603.95;237361;1195;139336;-59
2022/08/07 13:51:53;;;;;;;5.80;1.50;;;;;;;26.03;44.96;99594.29;237169;1195;139220;-59
2022/08/07 13:57:16;;;;;;;3.00;1.20;;;;;;;26.57;44.04;99583.51;237567;1195;139281;-59
2022/08/07 14:02:29;;;;;;;3.30;1.40;;;;;;;26.82;43.17;99574.13;237437;1195;139841;-59
2022/08/07 14:07:53;;;;;;;2.60;1.10;;;;;;;27.02;42.57;99573.20;237498;1194;139774;-60
2022/08/07 14:13:04;;;;;;;3.90;1.00;;;;;;;27.14;42.10;99571.14;237312;1195;139610;-60
2022/08/07 14:18:18;;;;;;;10.50;2.70;;;;;;;27.21;41.45;99565.29;237355;1195;139285;-59
2022/08/07 14:23:36;;;;;;;5.40;1.90;;;;;;;27.07;41.11;99561.75;237177;1195;139794;-60
2022/08/07 14:29:02;;;;;;;4.90;1.30;;;;;;;27.10;40.92;99554.52;237332;1195;139296;-59
2022/08/07 14:34:27;;;;;;;3.10;1.20;;;;;;;26.98;40.42;99550.48;237434;1194;139622;-58
2022/08/07 14:39:36;;;;;;;1.90;0.90;;;;;;;26.62;39.97;99556.71;237498;1195;139430;-59
2022/08/07 14:45:03;;;;;;;1.70;0.70;;;;;;;26.33;40.12;99555.15;237386;1195;140424;-60
2022/08/07 14:50:26;;;;;;;2.90;0.70;;;;;;;26.19;40.08;99549.09;237280;1195;141023;-59
2022/08/07 14:55:33;;;;;;;1.40;0.90;;;;;;;26.13;39.87;99541.44;237453;1194;140709;-59
2022/08/07 15:00:58;;;;;;;2.40;0.70;;;;;;;26.01;39.76;99537.98;237544;1195;140356;-58
2022/08/07 15:06:23;;;;;;;;;;;;;;;25.88;39.58;99532.45;237314;1195;140081;-59
2022/08/07 15:11:31;;;;;;;1.60;0.70;;;;;;;25.79;39.32;99527.39;237235;1195;125396;-59
2022/08/07 15:16:59;;;;;;;1.70;0.60;;;;;;;25.68;39.79;99531.60;237246;1195;139744;-59
2022/08/07 15:22:05;;;;;;;10.40;7.80;;;;;;;25.66;39.69;99526.13;237393;1195;139277;-59
2022/08/07 15:27:28;;;;;;;4.00;2.50;;;;;;;25.59;39.78;99524.83;237343;1195;139477;-58
2022/08/07 15:32:44;;;;;;;2.00;1.00;;;;;;;25.47;39.80;99520.77;237376;1195;139107;-59
2022/08/07 15:38:04;;;;;;;3.10;0.80;;;;;;;25.31;39.76;99520.71;237445;1194;139682;-59
2022/08/07 15:43:32;;;;;;;6.30;0.90;;;;;;;25.18;39.73;99523.77;237301;1195;139677;-59
2022/08/07 15:48:59;;;;;;;3.70;1.20;;;;;;;25.07;39.74;99511.74;237575;1195;139293;-59
2022/08/07 15:54:18;;;;;;;4.20;1.20;;;;;;;25.01;39.76;99511.45;237400;1195;139445;-60
2022/08/07 15:59:25;;;;;;;2.50;1.00;;;;;;;24.98;39.96;99504.97;237339;1194;139229;-59
2022/08/07 16:04:46;;;;;;;1.60;0.70;;;;;;;24.92;39.63;99501.69;237114;1195;140681;-60
2022/08/07 16:09:56;;;;;;;1.10;0.50;;;;;;;24.84;39.43;99503.86;237433;1195;139828;-60
2022/08/07 16:15:14;;;;;;;1.10;0.60;;;;;;;24.76;39.50;99506.51;237342;1194;139282;-59
2022/08/07 16:20:53;;;;;;;1.90;0.80;;;;;;;24.67;39.71;99501.73;237326;1195;140361;-59
2022/08/07 16:26:40;;;;;;;2.40;1.10;;;;;;;24.61;39.70;99498.52;237330;1195;139673;-59
2022/08/07 16:32:07;;;;;;;2.30;1.00;;;;;;;24.54;39.74;99497.75;237279;1195;142006;-60
2022/08/07 16:38:07;;;;;;;3.70;1.10;;;;;;;24.48;39.71;99497.02;237332;1195;139907;-60
2022/08/07 16:43:22;;;;;;;1.70;1.00;;;;;;;24.42;39.54;99500.05;237079;1195;140509;-59
2022/08/07 16:49:13;;;;;;;1.70;0.80;;;;;;;24.36;39.50;99497.52;237362;1195;139925;-59
2022/08/07 16:54:51;;;;;;;2.70;0.80;;;;;;;24.28;39.34;99497.63;237417;1194;140146;-59
2022/08/07 17:00:16;;;;;;;3.80;0.90;;;;;;;24.19;39.61;99499.14;237246;1195;139262;-59
2022/08/07 17:06:01;;;;;;;416.50;297.40;;;;;;;24.10;39.77;99498.15;237552;1195;138897;-59
2022/08/07 17:11:38;;;;;;;28.10;21.50;;;;;;;24.07;40.24;99500.67;237305;1195;140166;-59
2022/08/07 17:17:07;;;;;;;5.60;3.60;;;;;;;24.00;40.08;99500.88;236968;1195;140408;-60
2022/08/07 17:22:25;;;;;;;11.40;7.50;;;;;;;23.92;40.59;99500.20;237668;1195;139685;-60
2022/08/07 17:27:44;;;;;;;3.70;2.40;;;;;;;23.82;40.94;99499.62;237451;1195;139517;-60
2022/08/07 17:33:16;;;;;;;6.40;2.70;;;;;;;23.72;40.99;99506.92;237214;1195;139194;-59
2022/08/07 17:38:42;;;;;;;134.80;118.10;;;;;;;23.61;41.21;99505.38;237247;1195;140751;-59
2022/08/07 17:43:55;;;;;;;10.30;5.00;;;;;;;23.54;41.55;99503.09;237757;1193;140349;-59
2022/08/07 17:49:21;;;;;;;4.30;2.70;;;;;;;23.46;41.64;99505.35;237166;1195;139745;-58
2022/08/07 17:54:46;;;;;;;4.70;2.40;;;;;;;23.33;41.57;99512.33;237270;1195;140138;-59
2022/08/07 18:00:10;;;;;;;3.00;2.10;;;;;;;23.24;42.05;99514.96;236631;1195;139752;-59
2022/08/07 18:05:42;;;;;;;4.30;1.70;;;;;;;23.14;41.88;99520.59;237518;1194;139530;-59
2022/08/07 18:11:20;;;;;;;2.90;1.80;;;;;;;23.00;41.84;99524.77;237328;1195;139104;-59
2022/08/07 18:16:53;;;;;;;5.70;1.60;;;;;;;22.92;42.02;99527.63;237315;1195;139128;-58
2022/08/07 18:22:12;;;;;;;5.80;1.60;;;;;;;22.89;42.22;99532.73;237563;1193;138791;-58
2022/08/07 18:27:32;;;;;;;6.30;1.70;;;;;;;22.84;42.25;99535.26;237464;1195;139335;-58
2022/08/07 18:33:18;;;;;;;5.70;2.00;;;;;;;22.79;42.36;99539.80;237071;1195;139119;-59
2022/08/07 18:38:26;;;;;;;79.60;60.90;;;;;;;22.80;42.64;99545.56;237260;1194;139398;-59
2022/08/07 18:44:27;;;;;;;10.90;5.60;;;;;;;22.83;42.66;99546.08;237115;1195;139945;-57
2022/08/07 18:49:59;;;;;;;4.60;2.80;;;;;;;22.79;42.55;99549.23;237299;1195;139346;-57
2022/08/07 18:55:36;;;;;;;11.90;9.30;;;;;;;22.64;42.24;99550.44;237190;1195;141768;-58
2022/08/07 19:01:24;;;;;;;5.10;2.70;;;;;;;22.39;42.19;99556.81;237256;1194;139918;-57
2022/08/07 19:07:08;;;;;;;3.40;1.40;;;;;;;22.17;42.40;99556.38;237394;1195;139042;-58
2022/08/07 19:12:11;;;;;;;3.30;1.60;;;;;;;22.00;42.56;99559.33;237231;1195;139844;-56
2022/08/07 19:17:17;;;;;;;4.80;1.40;;;;;;;21.92;42.52;99557.83;237210;1195;138842;-57
2022/08/07 19:23:00;;;;;;;4.50;1.30;;;;;;;21.79;42.64;99567.06;237189;1195;139143;-59
2022/08/07 19:28:34;;;;;;;2.50;1.30;;;;;;;21.64;42.91;99564.40;237570;1194;139308;-58
2022/08/07 19:34:01;;;;;;;2.80;1.60;;;;;;;21.49;43.14;99569.31;237093;1196;138904;-57
2022/08/07 19:39:06;;;;;;;5.80;1.50;;;;;;;21.37;43.41;99571.77;237188;1196;139593;-57
2022/08/07 19:44:15;;;;;;;4.00;1.50;;;;;;;21.28;43.51;99570.88;237234;1195;140576;-57
2022/08/07 19:49:23;;;;;;;3.60;1.80;;;;;;;21.14;43.63;99573.06;237317;1194;139312;-56
2022/08/07 19:54:48;;;;;;;3.80;2.10;;;;;;;21.00;43.92;99572.27;237341;1194;139278;-56
2022/08/07 20:00:03;;;;;;;4.90;1.50;;;;;;;20.87;44.11;99578.07;237398;1195;139961;-57
2022/08/07 20:05:19;;;;;;;5.20;2.30;;;;;;;20.78;44.20;99580.02;237349;1194;140563;-57
2022/08/07 20:10:29;;;;;;;3.60;1.80;;;;;;;20.75;44.29;99581.95;237392;1195;139602;-56
2022/08/07 20:15:56;;;;;;;3.30;1.60;;;;;;;20.78;44.33;99580.38;237307;1193;139212;-57
2022/08/07 20:21:04;;;;;;;4.20;1.40;;;;;;;20.72;44.10;99588.85;237312;1194;139723;-58
2022/08/07 20:26:27;;;;;;;4.80;1.30;;;;;;;20.69;44.27;99589.21;237364;1194;139278;-56
2022/08/07 20:31:35;;;;;;;4.90;1.20;;;;;;;20.67;44.25;99587.62;237438;1195;139551;-56
2022/08/07 20:36:42;;;;;;;3.20;1.20;;;;;;;20.62;44.37;99586.40;237187;1195;140108;-57
2022/08/07 20:41:53;;;;;;;3.20;1.00;;;;;;;20.55;44.36;99591.90;237357;1195;140338;-58
2022/08/07 20:46:57;;;;;;;2.20;0.90;;;;;;;20.46;44.42;99602.27;237495;1195;139079;-58
2022/08/07 20:52:20;;;;;;;1.80;1.00;;;;;;;20.37;44.58;99605.02;237425;1194;139429;-57
2022/08/07 20:57:48;;;;;;;3.10;1.00;;;;;;;20.27;44.64;99608.59;237229;1195;140290;-57
2022/08/07 21:03:06;;;;;;;4.40;0.90;;;;;;;20.22;44.90;99608.67;237279;1195;140416;-57
2022/08/07 21:08:14;;;;;;;8.50;1.20;;;;;;;20.21;44.97;99609.55;237299;1195;141780;-57
2022/08/07 21:13:19;;;;;;;3.40;1.00;;;;;;;20.24;44.98;99611.55;237311;1195;139619;-57
2022/08/07 21:18:34;;;;;;;7.90;1.20;;;;;;;20.24;44.99;99610.09;237114;1195;140040;-56
2022/08/07 21:24:09;;;;;;;1.90;1.10;;;;;;;20.24;45.02;99615.18;237255;1194;139863;-58
2022/08/07 21:29:20;;;;;;;2.80;1.00;;;;;;;20.25;44.99;99612.73;237606;1195;140982;-57
2022/08/07 21:34:38;;;;;;;3.60;1.30;;;;;;;20.24;45.01;99610.55;237500;1195;139522;-56
2022/08/07 21:40:26;;;;;;;2.40;1.00;;;;;;;20.20;45.03;99610.89;237066;1195;141012;-57
2022/08/07 21:45:44;;;;;;;4.20;1.10;;;;;;;20.17;45.04;99608.95;236950;1194;138982;-57
2022/08/07 21:51:23;;;;;;;3.10;1.40;;;;;;;20.12;45.21;99609.50;237497;1194;139539;-57
2022/08/07 21:56:38;;;;;;;2.40;1.10;;;;;;;20.06;45.17;99610.92;237298;1194;139810;-57
2022/08/07 22:02:01;;;;;;;4.10;1.50;;;;;;;19.99;45.28;99611.31;237224;1195;140321;-57
2022/08/07 22:07:21;;;;;;;3.10;1.00;;;;;;;19.94;45.32;99614.16;237272;1194;140126;-57
2022/08/07 22:12:52;;;;;;;5.30;1.50;;;;;;;19.85;45.33;99611.77;237562;1194;140306;-57
2022/08/07 22:18:00;;;;;;;2.50;1.00;;;;;;;19.81;45.33;99613.38;237354;1195;139458;-58
2022/08/07 22:23:15;;;;;;;3.70;1.20;;;;;;;19.80;45.45;99614.02;237474;1195;140233;-59
2022/08/07 22:28:32;;;;;;;2.00;1.10;;;;;;;19.75;45.43;99615.61;237668;1194;139777;-60
2022/08/07 22:33:47;;;;;;;3.60;1.10;;;;;;;19.67;45.51;99614.17;237433;1194;141067;-58
2022/08/07 22:39:11;;;;;;;2.60;1.10;;;;;;;19.61;45.55;99613.50;237355;1195;140293;-57
2022/08/07 22:44:23;;;;;;;2.30;1.10;;;;;;;19.54;45.58;99607.35;237332;1194;141347;-57
2022/08/07 22:49:41;;;;;;;2.80;1.10;;;;;;;19.47;45.56;99602.95;237438;1195;140354;-58
2022/08/07 22:55:08;;;;;;;4.70;1.20;;;;;;;19.44;45.69;99609.02;237359;1195;140601;-59
2022/08/07 23:00:33;;;;;;;3.30;1.10;;;;;;;19.34;45.66;99607.20;237370;1195;139501;-58
2022/08/07 23:05:55;;;;;;;3.00;0.80;;;;;;;19.22;45.77;99602.87;237423;1194;139699;-59
2022/08/07 23:11:28;;;;;;;1.40;0.70;;;;;;;19.19;45.89;99606.75;237339;1195;142458;-59
2022/08/07 23:17:10;;;;;;;2.30;1.10;;;;;;;19.12;45.81;99604.81;237597;1194;139793;-59
2022/08/07 23:22:51;;;;;;;2.80;0.90;;;;;;;19.03;46.01;99598.41;237687;1193;139322;-59
2022/08/07 23:28:24;;;;;;;4.30;1.20;;;;;;;19.00;46.09;99595.40;237743;1193;139583;-59
2022/08/07 23:33:56;;;;;;;2.40;1.10;;;;;;;18.96;46.11;99592.23;237503;1194;140567;-59
2022/08/07 23:39:34;;;;;;;4.30;1.00;;;;;;;18.92;46.12;99592.87;237411;1194;140410;-58
2022/08/07 23:45:02;;;;;;;3.60;1.00;;;;;;;18.85;46.21;99592.45;237458;1194;139960;-58
2022/08/07 23:50:23;;;;;;;3.20;1.10;;;;;;;18.74;46.25;99593.92;237404;1195;139542;-58
2022/08/07 23:55:34;;;;;;;2.40;1.20;;;;;;;18.69;46.37;99593.27;237488;1194;138987;-59
